createdAt,value
2024-01-15T00:00:08.756Z,65.73
2024-01-15T00:01:08.846Z,75.18
2024-01-15T00:02:08.734Z,81.35
2024-01-15T00:03:08.760Z,81.80
2024-01-15T00:04:08.823Z,78.09
2024-01-15T00:05:08.740Z,74.35
2024-01-15T00:06:08.819Z,63.24
2024-01-15T00:07:08.821Z,60.79
2024-01-15T00:08:08.738Z,53.58
2024-01-15T00:17:16.201Z,48.65
2024-01-15T00:17:39.193Z,50.86
2024-01-15T00:18:39.203Z,67.74
2024-01-15T00:19:39.224Z,83.13
2024-01-15T00:20:39.141Z,93.41
2024-01-15T00:21:39.195Z,95.93
2024-01-15T00:22:39.168Z,93.96
2024-01-15T00:23:39.167Z,79.50
2024-01-15T00:24:39.235Z,68.99
2024-01-15T00:25:39.154Z,58.58
2024-01-15T00:26:39.196Z,52.04
2024-01-15T00:27:39.185Z,49.55
2024-01-15T00:28:39.150Z,50.00
2024-01-15T00:29:39.210Z,50.27
2024-01-15T00:30:39.233Z,53.89
2024-01-15T00:31:39.273Z,53.53
2024-01-15T00:32:39.247Z,52.06
2024-01-15T00:33:39.243Z,54.63
2024-01-15T00:34:39.271Z,55.61
2024-01-15T00:35:39.156Z,54.36
2024-01-15T00:36:39.246Z,51.79
2024-01-15T01:09:41.267Z,53.55
2024-01-15T01:10:04.226Z,55.74
2024-01-15T01:11:04.217Z,86.14
2024-01-15T01:12:04.276Z,125.65
2024-01-15T01:13:04.234Z,159.10
2024-01-15T01:14:04.221Z,192.64
2024-01-15T01:15:04.307Z,196.80
2024-01-15T01:16:04.229Z,176.23
2024-01-15T01:17:04.262Z,158.24
2024-01-15T01:18:04.650Z,141.43
2024-01-15T01:19:04.411Z,125.74
2024-01-15T01:20:04.385Z,111.41
2024-01-15T01:21:04.284Z,104.43
2024-01-15T01:22:04.238Z,100.45
2024-01-15T01:23:04.276Z,97.55
2024-01-15T01:24:04.272Z,92.81
2024-01-15T01:25:04.244Z,87.32
2024-01-15T01:26:04.239Z,87.79
2024-01-15T01:27:04.305Z,86.21
2024-01-15T01:28:04.267Z,85.90
2024-01-15T01:29:04.257Z,84.22
2024-01-15T01:30:04.371Z,83.03
2024-01-15T01:31:04.351Z,80.29
2024-01-15T01:32:04.266Z,77.94
2024-01-15T01:33:04.362Z,74.25
2024-01-15T01:34:04.342Z,76.01
2024-01-15T01:35:04.287Z,77.05
2024-01-15T01:36:04.289Z,75.89
2024-01-15T01:37:04.276Z,75.88
2024-01-15T01:38:04.268Z,78.26
2024-01-15T01:39:04.346Z,78.22
2024-01-15T01:40:04.285Z,79.70
2024-01-15T01:41:04.287Z,85.99
2024-01-15T01:42:04.290Z,86.44
2024-01-15T01:43:04.294Z,85.65
2024-01-15T01:44:04.304Z,86.51
2024-01-15T01:45:04.326Z,88.33
2024-01-15T01:46:04.348Z,83.40
2024-01-15T01:47:04.384Z,85.12
2024-01-15T01:48:04.491Z,85.17
2024-01-15T01:49:04.511Z,84.76
2024-01-15T01:50:04.457Z,83.00
2024-01-15T01:51:04.572Z,77.43
2024-01-15T01:52:04.588Z,81.78
2024-01-15T01:53:04.687Z,78.49
2024-01-15T01:54:04.692Z,74.22
2024-01-15T01:55:04.685Z,72.36
2024-01-15T01:56:04.724Z,60.73
2024-01-15T01:57:04.971Z,63.12
2024-01-15T01:58:04.808Z,60.10
2024-01-15T01:59:04.861Z,51.86
2024-01-15T02:00:05.058Z,52.96
2024-01-15T02:01:05.008Z,50.35
2024-01-15T02:02:05.170Z,51.30
2024-01-15T02:03:05.071Z,51.09
2024-01-15T02:04:05.223Z,52.84
2024-01-15T02:05:05.156Z,52.90
2024-01-15T02:06:05.321Z,51.29
2024-01-15T02:07:05.285Z,51.54
2024-01-15T02:08:05.234Z,51.83
2024-01-15T02:09:05.284Z,52.45
2024-01-15T02:21:23.360Z,53.41
2024-01-15T02:21:48.795Z,56.28
2024-01-15T02:22:48.738Z,77.38
2024-01-15T02:23:48.745Z,98.92
2024-01-15T02:24:48.861Z,121.10
2024-01-15T02:25:48.758Z,141.84
2024-01-15T02:26:48.767Z,138.72
2024-01-15T02:27:48.830Z,120.33
2024-01-15T02:28:48.776Z,102.25
2024-01-15T02:29:48.753Z,92.28
2024-01-15T02:30:48.821Z,85.83
2024-01-15T02:31:48.992Z,77.87
2024-01-15T02:32:48.813Z,73.62
2024-01-15T02:33:48.949Z,69.27
2024-01-15T02:34:48.925Z,67.29
2024-01-15T02:35:48.781Z,65.10
2024-01-15T02:39:49.678Z,64.07
2024-01-15T02:40:16.596Z,65.32
2024-01-15T02:41:16.530Z,71.52
2024-01-15T02:42:16.561Z,74.31
2024-01-15T02:43:16.535Z,72.09
2024-01-15T02:44:16.526Z,65.11
2024-01-15T02:45:16.591Z,55.33
2024-01-15T02:46:16.544Z,52.31
2024-01-15T02:47:16.548Z,52.75
2024-01-15T02:48:16.758Z,51.46
2024-01-15T02:49:16.602Z,51.39
2024-01-15T02:50:16.568Z,53.41
2024-01-15T02:51:16.596Z,51.34
2024-01-15T02:52:16.557Z,51.81
2024-01-15T02:53:16.550Z,50.09
2024-01-15T02:54:16.608Z,50.00
2024-01-15T02:55:16.561Z,50.91
2024-01-15T02:56:16.598Z,50.58
2024-01-15T02:57:16.586Z,51.26
2024-01-15T02:58:16.585Z,51.69
2024-01-15T02:59:16.555Z,50.14
2024-01-15T03:00:16.760Z,51.90
2024-01-15T03:01:16.680Z,50.81
2024-01-15T03:02:16.573Z,50.00
2024-01-15T03:03:16.602Z,50.80
2024-01-15T03:04:16.657Z,52.16
2024-01-15T03:05:16.641Z,51.86
2024-01-15T03:06:16.655Z,50.88
2024-01-15T03:07:16.621Z,50.02
2024-01-15T03:08:16.585Z,50.74
2024-01-15T03:09:16.625Z,50.61
2024-01-15T03:10:16.578Z,50.42
2024-01-15T03:11:16.585Z,51.54
2024-01-15T03:12:16.617Z,52.67
2024-01-15T03:13:16.624Z,53.22
2024-01-15T03:14:16.596Z,54.60
2024-01-15T03:15:16.654Z,56.17
2024-01-15T03:16:16.606Z,57.44
2024-01-15T03:17:16.611Z,58.35
2024-01-15T03:18:16.730Z,59.16
2024-01-15T03:19:16.717Z,59.10
2024-01-15T03:20:16.618Z,60.42
2024-01-15T03:21:16.724Z,62.81
2024-01-15T03:22:16.605Z,65.31
2024-01-15T03:23:16.628Z,67.97
2024-01-15T03:24:16.676Z,70.70
2024-01-15T03:25:16.615Z,78.47
2024-01-15T03:26:16.630Z,86.32
2024-01-15T03:27:16.661Z,88.72
2024-01-15T03:28:16.638Z,90.31
2024-01-15T03:29:16.659Z,96.29
2024-01-15T03:30:16.910Z,97.80
2024-01-15T03:31:16.725Z,99.73
2024-01-15T03:32:16.633Z,98.79
2024-01-15T03:33:16.747Z,98.06
2024-01-15T03:34:16.797Z,96.77
2024-01-15T03:35:16.750Z,96.08
2024-01-15T03:36:16.872Z,95.30
2024-01-15T03:37:16.786Z,95.66
2024-01-15T03:38:16.820Z,92.29
2024-01-15T03:39:16.933Z,87.43
2024-01-15T03:40:19.350Z,81.45
2024-01-15T03:41:16.866Z,78.87
2024-01-15T03:42:17.104Z,74.26
2024-01-15T03:43:16.877Z,71.92
2024-01-15T03:44:16.903Z,72.61
2024-01-15T03:45:16.894Z,71.08
2024-01-15T03:46:16.887Z,70.52
2024-01-15T04:33:34.809Z,68.83
2024-01-15T04:33:57.690Z,70.94
2024-01-15T04:34:57.588Z,99.83
2024-01-15T04:35:57.624Z,134.30
2024-01-15T04:36:57.637Z,165.52
2024-01-15T04:37:57.559Z,192.32
2024-01-15T04:38:57.587Z,194.08
2024-01-15T04:39:57.642Z,168.42
2024-01-15T04:40:58.673Z,149.62
2024-01-15T04:41:57.581Z,134.28
2024-01-15T04:42:57.558Z,123.47
2024-01-15T04:43:57.575Z,111.46
2024-01-15T04:44:57.590Z,100.10
2024-01-15T04:45:57.733Z,95.44
2024-01-15T04:47:00.947Z,91.67
2024-01-15T04:48:08.909Z,50.00
2024-01-15T04:49:09.000Z,50.00
2024-01-15T04:50:08.808Z,50.00
2024-01-15T04:51:08.820Z,50.00
2024-01-15T04:52:08.792Z,50.00
2024-01-15T04:53:11.823Z,51.84
2024-01-15T04:54:08.874Z,50.42
2024-01-15T04:55:08.818Z,37.56
2024-01-15T04:56:08.814Z,35.96
2024-01-15T04:57:08.839Z,30.43
2024-01-15T04:58:08.799Z,26.41
2024-01-15T04:59:08.835Z,41.05
2024-01-15T05:00:08.824Z,50.84
2024-01-15T05:01:08.982Z,50.00
2024-01-15T05:02:08.857Z,50.28
2024-01-15T05:03:08.945Z,51.31
2024-01-15T05:04:08.969Z,50.51
2024-01-15T05:05:08.931Z,52.67
2024-01-15T05:06:08.892Z,54.40
2024-01-15T05:07:08.885Z,53.58
2024-01-15T06:07:00.841Z,50.09
2024-01-15T06:07:22.487Z,52.30
2024-01-15T06:08:22.531Z,82.93
2024-01-15T06:09:22.546Z,143.20
2024-01-15T06:10:22.583Z,182.48
2024-01-15T06:11:22.649Z,209.50
2024-01-15T06:12:22.688Z,176.61
2024-01-15T06:13:22.708Z,118.33
2024-01-15T06:14:22.728Z,77.94
2024-01-15T06:15:22.838Z,60.97
2024-01-15T06:16:22.843Z,48.43
2024-01-15T06:17:22.890Z,40.98
2024-01-15T06:18:22.997Z,45.13
2024-01-15T06:19:23.200Z,49.67
2024-01-15T06:20:23.115Z,47.63
2024-01-15T06:21:23.162Z,70.70
2024-01-15T06:22:23.183Z,79.91
2024-01-15T06:23:23.264Z,78.14
2024-01-15T06:24:23.312Z,90.67
2024-01-15T06:25:23.382Z,106.86
2024-01-15T06:26:23.397Z,116.54
2024-01-15T06:27:23.505Z,123.75
2024-01-15T06:28:23.534Z,126.54
2024-01-15T06:29:23.637Z,139.36
2024-01-15T06:30:27.242Z,143.39
2024-01-15T06:34:09.493Z,143.39
2024-01-15T06:34:32.439Z,144.14
2024-01-15T06:35:33.585Z,148.57
2024-01-15T06:36:32.375Z,144.16
2024-01-15T06:37:32.350Z,116.39
2024-01-15T06:38:32.387Z,100.11
2024-01-15T06:39:32.354Z,99.73
2024-01-15T06:56:10.153Z,91.04
2024-01-15T06:56:33.150Z,92.90
2024-01-15T06:57:33.280Z,108.43
2024-01-15T06:58:33.170Z,122.59
2024-01-15T06:59:33.150Z,133.95
2024-01-15T07:00:33.239Z,140.14
2024-01-15T07:01:33.243Z,143.66
2024-01-15T07:02:33.207Z,118.72
2024-01-15T07:03:33.312Z,99.88
2024-01-15T07:04:33.150Z,85.67
2024-01-15T07:05:33.212Z,75.47
2024-01-15T07:06:33.185Z,52.95
2024-01-15T07:07:33.153Z,29.12
2024-01-15T07:08:33.174Z,26.54
2024-01-15T07:09:33.164Z,25.85
2024-01-15T07:10:36.204Z,30.08
2024-01-15T07:11:33.172Z,19.07
2024-01-15T07:12:33.348Z,18.66
2024-01-15T07:13:33.341Z,18.45
2024-01-15T07:14:33.154Z,17.79
2024-01-15T07:15:33.906Z,18.86
2024-01-15T07:16:37.614Z,34.23
2024-01-15T07:17:34.246Z,34.46
2024-01-15T07:18:33.477Z,35.63
2024-01-15T07:19:33.412Z,37.63
2024-01-15T07:20:33.228Z,42.39
2024-01-15T07:21:33.253Z,47.11
2024-01-15T07:22:33.196Z,50.29
2024-01-15T07:23:33.186Z,50.06
2024-01-15T07:24:33.207Z,49.66
2024-01-15T07:25:33.186Z,50.39
2024-01-15T07:26:33.213Z,50.19
2024-01-15T07:27:33.388Z,50.00
2024-01-15T07:28:33.206Z,53.14
2024-01-15T07:29:33.213Z,54.30
2024-01-15T07:30:33.303Z,55.23
2024-01-15T07:31:33.435Z,57.70
2024-01-15T07:32:33.243Z,57.27
2024-01-15T07:33:33.413Z,56.24
2024-01-15T07:34:33.333Z,58.38
2024-01-15T07:35:33.308Z,76.27
2024-01-15T07:36:33.439Z,82.68
2024-01-15T07:37:33.391Z,89.80
2024-01-15T07:38:33.434Z,78.14
2024-01-15T07:39:33.491Z,72.90
2024-01-15T07:40:33.900Z,63.02
2024-01-15T07:41:33.546Z,58.26
2024-01-15T07:42:33.692Z,50.74
2024-01-15T07:43:33.622Z,43.79
2024-01-15T07:44:33.629Z,42.49
2024-01-15T07:45:33.721Z,46.76
2024-01-15T07:46:33.678Z,49.78
2024-01-15T07:47:33.948Z,50.94
2024-01-15T07:48:33.816Z,58.15
2024-01-15T07:49:33.918Z,56.49
2024-01-15T07:50:33.822Z,55.54
2024-01-15T07:51:33.910Z,59.38
2024-01-15T07:52:33.918Z,67.27
2024-01-15T07:53:34.012Z,70.63
2024-01-15T07:54:34.107Z,71.43
2024-01-15T07:55:34.064Z,101.31
2024-01-15T07:56:34.066Z,101.55
2024-01-15T07:57:34.106Z,93.29
2024-01-15T07:58:34.116Z,86.24
2024-01-15T07:59:34.115Z,73.70
2024-01-15T08:00:34.226Z,56.65
2024-01-15T08:01:34.283Z,53.22
2024-01-15T08:02:37.105Z,48.12
2024-01-15T08:03:34.937Z,46.95
2024-01-15T08:04:34.443Z,47.14
2024-01-15T08:05:34.310Z,50.00
2024-01-15T08:06:34.353Z,52.26
2024-01-15T08:07:34.262Z,53.21
2024-01-15T08:08:34.269Z,57.22
2024-01-15T08:09:34.340Z,56.71
2024-01-15T08:10:34.256Z,52.32
2024-01-15T08:11:34.312Z,54.64
2024-01-15T08:12:34.364Z,60.34
2024-01-15T08:13:34.266Z,54.27
2024-01-15T08:14:34.256Z,58.12
2024-01-15T08:15:34.304Z,66.93
2024-01-15T08:16:34.259Z,66.62
2024-01-15T08:17:34.339Z,67.38
2024-01-15T08:18:34.474Z,67.48
2024-01-15T08:19:34.509Z,64.76
2024-01-15T08:20:34.314Z,65.84
2024-01-15T08:21:34.306Z,64.85
2024-01-15T08:22:34.286Z,63.41
2024-01-15T08:23:34.337Z,62.91
2024-01-15T08:24:34.384Z,62.34
2024-01-15T08:25:34.294Z,63.00
2024-01-15T08:26:34.274Z,59.35
2024-01-15T08:27:34.338Z,59.85
2024-01-15T08:28:34.303Z,61.60
2024-01-15T08:29:34.285Z,60.49
2024-01-15T08:30:34.434Z,61.33
2024-01-15T08:31:34.497Z,61.73
2024-01-15T08:32:34.343Z,59.74
2024-01-15T08:33:34.417Z,62.03
2024-01-15T08:34:34.356Z,61.29
2024-01-15T08:35:34.349Z,60.48
2024-01-15T08:36:34.324Z,56.13
2024-01-15T08:37:34.318Z,54.44
2024-01-15T08:38:34.317Z,57.87
2024-01-15T08:39:34.383Z,62.01
2024-01-15T08:40:34.324Z,63.14
2024-01-15T08:41:34.345Z,67.07
2024-01-15T08:42:34.423Z,72.07
2024-01-15T08:43:34.324Z,74.37
2024-01-15T08:44:34.338Z,72.54
2024-01-15T08:45:34.383Z,70.68
2024-01-15T08:46:34.319Z,67.28
2024-01-15T08:47:34.487Z,68.37
2024-01-15T08:48:34.481Z,66.37
2024-01-15T08:49:34.652Z,64.82
2024-01-15T08:50:34.529Z,65.19
2024-01-15T08:51:34.530Z,62.69
2024-01-15T08:52:34.556Z,52.84
2024-01-15T08:53:34.574Z,49.92
2024-01-15T08:54:34.724Z,50.00
2024-01-15T08:55:34.695Z,50.98
2024-01-15T08:56:34.694Z,57.14
2024-01-15T08:57:34.909Z,54.25
2024-01-15T08:58:34.821Z,53.89
2024-01-15T08:59:34.865Z,56.08
2024-01-15T09:00:34.986Z,64.94
2024-01-15T09:01:34.960Z,68.13
2024-01-15T09:02:34.984Z,64.12
2024-01-15T09:03:35.204Z,59.35
2024-01-15T09:04:35.108Z,58.45
2024-01-15T09:05:35.083Z,55.07
2024-01-15T09:06:35.160Z,57.12
2024-01-15T09:07:35.150Z,61.11
2024-01-15T09:08:35.304Z,58.99
2024-01-15T09:09:35.317Z,51.98
2024-01-15T09:10:35.304Z,49.75
2024-01-15T09:13:29.158Z,50.00
2024-01-15T09:13:53.855Z,50.00
2024-01-15T09:14:53.852Z,50.00
2024-01-15T09:15:53.993Z,50.00
2024-01-15T09:17:31.243Z,50.00
2024-01-15T09:17:54.081Z,50.00
2024-01-15T09:18:54.329Z,50.00
2024-01-15T09:19:54.029Z,50.00
2024-01-15T09:20:54.080Z,50.00
2024-01-15T09:21:54.068Z,50.00
2024-01-15T09:22:53.988Z,50.00
2024-01-15T09:23:54.127Z,49.27
2024-01-15T09:24:54.049Z,58.01
2024-01-15T09:25:54.060Z,47.37
2024-01-15T09:26:54.072Z,72.96
2024-01-15T09:27:54.200Z,94.57
2024-01-15T09:28:54.050Z,83.51
2024-01-15T09:30:19.856Z,103.63
2024-01-15T09:30:54.449Z,104.46
2024-01-15T09:31:54.139Z,109.95
2024-01-15T09:33:01.565Z,112.43
2024-01-15T09:33:55.266Z,104.84
2024-01-15T09:34:56.712Z,114.07
2024-01-15T09:35:58.214Z,144.57
2024-01-15T09:36:54.239Z,109.08
2024-01-15T09:38:26.381Z,122.62
2024-01-15T09:38:54.184Z,104.58
2024-01-15T09:39:54.073Z,113.48
2024-01-15T09:40:54.093Z,124.69
2024-01-15T09:41:54.004Z,134.80
2024-01-15T09:42:54.140Z,147.78
2024-01-15T09:43:53.995Z,147.06
2024-01-15T09:44:54.046Z,150.78
2024-01-15T09:45:54.040Z,150.64
2024-01-15T09:46:54.046Z,142.41
2024-01-15T09:47:54.051Z,129.76
2024-01-15T09:48:54.153Z,134.97
2024-01-15T09:49:54.288Z,129.30
2024-01-15T09:50:54.125Z,124.24
2024-01-15T09:52:02.565Z,130.28
2024-01-15T09:52:55.077Z,130.38
2024-01-15T09:53:54.043Z,133.98
2024-01-15T09:54:54.121Z,145.45
2024-01-15T09:55:54.066Z,153.85
2024-01-15T09:56:54.005Z,175.74
2024-01-15T09:57:54.183Z,162.12
2024-01-15T09:58:54.219Z,134.74
2024-01-15T09:59:54.119Z,124.71
2024-01-15T10:00:54.202Z,126.53
2024-01-15T10:01:54.062Z,114.37
2024-01-15T10:02:54.122Z,88.84
2024-01-15T10:03:54.147Z,76.88
2024-01-15T10:04:54.268Z,68.42
2024-01-15T10:05:54.073Z,60.82
2024-01-15T10:06:54.150Z,59.32
2024-01-15T10:07:54.086Z,61.08
2024-01-15T10:08:54.166Z,59.76
2024-01-15T10:09:54.231Z,68.89
2024-01-15T10:10:54.144Z,84.28
2024-01-15T10:11:54.196Z,104.13
2024-01-15T10:12:54.291Z,111.16
2024-01-15T10:13:57.546Z,92.52
2024-01-15T10:14:54.273Z,81.32
2024-01-15T10:15:54.339Z,90.79
2024-01-15T10:16:54.319Z,83.37
2024-01-15T10:17:54.407Z,76.83
2024-01-15T10:18:54.406Z,78.89
2024-01-15T10:19:54.331Z,83.03
2024-01-15T10:20:54.377Z,83.97
2024-01-15T10:21:54.304Z,87.57
2024-01-15T10:22:54.296Z,83.84
2024-01-15T10:23:54.309Z,85.11
2024-01-15T10:24:54.465Z,103.34
2024-01-15T10:25:54.307Z,94.23
2024-01-15T10:26:54.300Z,82.49
2024-01-15T10:27:54.327Z,89.25
2024-01-15T10:28:54.313Z,90.21
2024-01-15T10:29:54.302Z,81.09
2024-01-15T10:30:54.504Z,78.15
2024-01-15T10:31:54.468Z,92.61
2024-01-15T10:32:54.371Z,101.84
2024-01-15T10:33:54.530Z,65.78
2024-01-15T10:34:54.583Z,51.37
2024-01-15T10:35:54.341Z,68.63
2024-01-15T10:36:54.525Z,73.38
2024-01-15T10:37:54.320Z,88.87
2024-01-15T10:38:54.350Z,78.93
2024-01-15T10:39:54.410Z,85.76
2024-01-15T10:40:54.370Z,75.44
2024-01-15T10:41:54.394Z,80.57
2024-01-15T10:42:54.418Z,73.04
2024-01-15T10:43:54.335Z,80.72
2024-01-15T10:46:32.950Z,126.88
2024-01-15T10:46:54.583Z,127.19
2024-01-15T10:47:54.713Z,131.53
2024-01-15T10:48:54.751Z,129.85
2024-01-15T10:49:54.897Z,131.66
2024-01-15T10:50:54.785Z,136.04
2024-01-15T10:51:54.878Z,122.53
2024-01-15T10:52:54.906Z,106.46
2024-01-15T10:53:54.910Z,103.40
2024-01-15T10:54:55.044Z,91.43
2024-01-15T10:55:55.046Z,77.73
2024-01-15T10:56:55.072Z,60.49
2024-01-15T10:57:55.093Z,66.03
2024-01-15T10:58:58.005Z,105.81
2024-01-15T10:59:55.126Z,106.21
2024-01-15T11:00:55.226Z,111.94
2024-01-15T11:01:56.066Z,117.52
2024-01-15T11:02:55.136Z,113.69
2024-01-15T11:03:55.194Z,115.08
2024-01-15T11:04:55.283Z,102.17
2024-01-15T11:05:55.166Z,96.23
2024-01-15T11:06:55.961Z,97.04
2024-01-15T11:07:55.116Z,109.13
2024-01-15T11:08:55.123Z,104.41
2024-01-15T11:09:55.249Z,116.53
2024-01-15T11:10:55.144Z,114.21
2024-01-15T11:11:55.150Z,121.43
2024-01-15T11:12:55.154Z,121.07
2024-01-15T11:13:55.131Z,119.04
2024-01-15T11:14:55.188Z,123.69
2024-01-15T11:15:55.222Z,125.57
2024-01-15T11:16:55.184Z,120.31
2024-01-15T11:17:55.287Z,121.81
2024-01-15T11:18:55.317Z,122.36
2024-01-15T11:19:55.370Z,121.98
2024-01-15T11:20:55.343Z,119.93
2024-01-15T11:21:55.423Z,133.11
2024-01-15T11:22:55.436Z,129.58
2024-01-15T11:23:55.466Z,127.43
2024-01-15T11:24:55.479Z,131.59
2024-01-15T11:25:55.527Z,128.87
2024-01-15T11:26:55.569Z,123.62
2024-01-15T11:27:55.670Z,121.38
2024-01-15T11:28:55.631Z,122.65
2024-01-15T11:29:55.687Z,132.59
2024-01-15T11:30:55.880Z,132.80
2024-01-15T11:31:55.979Z,129.61
2024-01-15T11:32:55.967Z,125.95
2024-01-15T11:33:56.070Z,129.85
2024-01-15T11:34:56.072Z,131.73
2024-01-15T11:35:55.939Z,125.98
2024-01-15T11:36:56.034Z,110.26
2024-01-15T11:37:56.153Z,110.05
2024-01-15T11:38:55.991Z,104.78
2024-01-15T11:39:56.115Z,100.36
2024-01-15T11:40:55.995Z,99.62
2024-01-15T11:41:56.030Z,114.52
2024-01-15T11:42:56.199Z,124.95
2024-01-15T11:43:56.159Z,131.79
2024-01-15T11:44:56.166Z,135.87
2024-01-15T11:45:56.220Z,133.35
2024-01-15T11:46:56.245Z,116.77
2024-01-15T11:47:56.312Z,122.21
2024-01-15T11:48:56.364Z,99.04
2024-01-15T11:49:56.395Z,85.26
2024-01-15T11:50:56.592Z,85.95
2024-01-15T11:51:56.526Z,85.94
2024-01-15T11:52:56.472Z,83.49
2024-01-15T11:53:56.679Z,77.32
2024-01-15T11:54:56.714Z,77.28
2024-01-15T11:55:56.543Z,84.38
2024-01-15T11:56:56.647Z,91.49
2024-01-15T11:57:56.736Z,93.05
2024-01-15T11:58:56.754Z,110.91
2024-01-15T11:59:56.756Z,175.29
2024-01-15T12:00:57.045Z,189.08
2024-01-15T12:01:56.963Z,171.90
2024-01-15T12:02:56.889Z,135.10
2024-01-15T12:03:57.031Z,100.01
2024-01-15T12:04:56.982Z,92.76
2024-01-15T12:05:57.064Z,83.56
2024-01-15T12:06:57.235Z,77.95
2024-01-15T12:07:57.079Z,65.60
2024-01-15T12:08:57.103Z,63.80
2024-01-15T12:09:57.188Z,65.75
2024-01-15T12:10:57.285Z,64.05
2024-01-15T12:11:57.301Z,51.58
2024-01-15T12:12:57.322Z,50.00
2024-01-15T12:13:57.307Z,57.07
2024-01-15T12:14:57.358Z,51.13
2024-01-15T12:15:57.513Z,71.52
2024-01-15T12:16:57.452Z,77.23
2024-01-15T12:17:57.568Z,85.49
2024-01-15T12:18:57.652Z,83.68
2024-01-15T12:19:57.595Z,86.38
2024-01-15T12:20:57.639Z,76.28
2024-01-15T12:21:57.682Z,82.47
2024-01-15T12:23:02.145Z,125.97
2024-01-15T12:23:58.697Z,126.52
2024-01-15T12:24:57.721Z,128.81
2024-01-15T12:25:57.699Z,119.04
2024-01-15T12:26:57.729Z,104.85
2024-01-15T12:27:57.843Z,102.70
2024-01-15T12:28:58.051Z,99.68
2024-01-15T12:29:57.715Z,102.76
2024-01-15T12:30:57.864Z,102.73
2024-01-15T12:31:57.793Z,110.97
2024-01-15T12:32:57.771Z,95.70
2024-01-15T12:33:57.786Z,99.14
2024-01-15T12:34:57.724Z,124.94
2024-01-15T12:35:57.764Z,146.00
2024-01-15T12:36:57.833Z,163.58
2024-01-15T12:37:57.859Z,180.21
2024-01-15T12:38:57.900Z,174.45
2024-01-15T12:39:57.913Z,163.57
2024-01-15T12:40:57.997Z,134.15
2024-01-15T12:41:58.064Z,118.12
2024-01-15T12:42:58.107Z,119.51
2024-01-15T12:43:58.108Z,101.84
2024-01-15T12:44:58.152Z,78.39
2024-01-15T12:45:58.301Z,65.12
2024-01-15T12:46:58.200Z,55.95
2024-01-15T12:47:58.313Z,75.64
2024-01-15T12:48:58.377Z,96.34
2024-01-15T12:50:06.035Z,85.74
2024-01-15T12:50:59.375Z,71.59
2024-01-15T12:51:58.329Z,69.37
2024-01-15T12:52:58.363Z,84.40
2024-01-15T12:53:58.356Z,86.88
2024-01-15T12:54:58.408Z,81.71
2024-01-15T12:55:58.342Z,72.67
2024-01-15T12:56:58.357Z,64.53
2024-01-15T12:57:58.387Z,68.89
2024-01-15T12:58:58.365Z,82.15
2024-01-15T12:59:58.350Z,97.70
2024-01-15T13:00:58.514Z,117.05
2024-01-15T13:01:58.448Z,108.19
2024-01-15T13:02:58.474Z,102.36
2024-01-15T13:03:58.561Z,80.88
2024-01-15T13:04:58.682Z,82.24
2024-01-15T13:05:58.592Z,84.31
2024-01-15T13:06:58.641Z,86.98
2024-01-15T13:07:58.605Z,101.10
2024-01-15T13:08:58.645Z,118.54
2024-01-15T13:09:58.811Z,183.84
2024-01-15T13:10:58.785Z,193.33
2024-01-15T13:11:58.800Z,173.36
2024-01-15T13:12:59.015Z,163.52
2024-01-15T13:13:58.886Z,148.05
2024-01-15T13:14:58.898Z,133.97
2024-01-15T13:15:59.010Z,129.85
2024-01-15T13:16:58.986Z,130.14
2024-01-15T13:17:59.120Z,126.42
2024-01-15T13:18:59.182Z,125.74
2024-01-15T13:19:59.347Z,126.72
2024-01-15T13:20:59.183Z,129.93
2024-01-15T13:21:59.203Z,127.75
2024-01-15T13:22:59.279Z,132.99
2024-01-15T13:23:59.300Z,129.01
2024-01-15T13:24:59.413Z,125.65
2024-01-15T13:25:59.435Z,129.09
2024-01-15T13:26:59.482Z,126.18
2024-01-15T13:27:59.584Z,123.39
2024-01-15T13:28:59.605Z,117.35
2024-01-15T13:29:59.663Z,116.85
2024-01-15T13:30:59.934Z,122.14
2024-01-15T13:31:59.767Z,125.99
2024-01-15T13:32:59.845Z,134.10
2024-01-15T13:33:59.896Z,136.03
2024-01-15T13:34:59.911Z,132.21
2024-01-15T13:35:59.942Z,135.13
2024-01-15T13:36:59.984Z,134.61
2024-01-15T13:38:00.026Z,144.98
2024-01-15T13:39:00.088Z,161.04
2024-01-15T13:40:00.236Z,175.50
2024-01-15T13:41:00.119Z,186.70
2024-01-15T13:42:00.162Z,191.39
2024-01-15T13:43:00.273Z,199.39
2024-01-15T13:44:00.229Z,191.95
2024-01-15T13:45:00.263Z,196.31
2024-01-15T13:46:00.395Z,197.54
2024-01-15T13:47:00.379Z,186.38
2024-01-15T13:48:00.410Z,164.73
2024-01-15T13:49:00.511Z,161.70
2024-01-15T13:50:07.875Z,50.00
2024-01-15T13:51:07.878Z,50.00
2024-01-15T13:52:07.896Z,50.00
2024-01-15T13:53:07.889Z,50.00
2024-01-15T13:54:07.946Z,50.00
2024-01-15T13:55:08.007Z,53.69
2024-01-15T13:56:07.897Z,64.16
2024-01-15T13:57:07.899Z,71.22
2024-01-15T13:58:07.934Z,69.92
2024-01-15T13:59:07.877Z,71.73
2024-01-15T14:00:07.880Z,89.01
2024-01-15T14:01:08.012Z,112.07
2024-01-15T14:02:07.973Z,137.44
2024-01-15T14:03:08.012Z,139.25
2024-01-15T14:04:07.956Z,134.67
2024-01-15T14:05:07.944Z,140.86
2024-01-15T14:06:07.907Z,144.24
2024-01-15T14:07:07.943Z,127.35
2024-01-15T14:08:07.913Z,82.44
2024-01-15T14:09:07.917Z,64.23
2024-01-15T14:10:08.071Z,52.73
2024-01-15T14:11:07.973Z,58.80
2024-01-15T14:12:07.898Z,50.40
2024-01-15T14:13:07.962Z,58.67
2024-01-15T14:14:07.919Z,78.07
2024-01-15T14:15:07.935Z,78.26
2024-01-15T14:16:07.925Z,83.05
2024-01-15T14:17:07.926Z,84.33
2024-01-15T14:18:08.071Z,80.50
2024-01-15T14:19:08.089Z,75.19
2024-01-15T14:20:08.000Z,69.04
2024-01-15T14:21:07.958Z,58.18
2024-01-15T14:22:07.964Z,62.31
2024-01-15T14:23:07.977Z,73.69
2024-01-15T14:24:08.824Z,78.45
2024-01-15T14:25:39.543Z,92.19
2024-01-15T14:26:07.957Z,92.88
2024-01-15T14:27:07.970Z,98.02
2024-01-15T14:28:08.002Z,107.96
2024-01-15T14:29:07.962Z,116.70
2024-01-15T14:30:07.994Z,136.75
2024-01-15T14:31:08.097Z,148.54
2024-01-15T14:32:07.950Z,141.93
2024-01-15T14:33:08.063Z,137.22
2024-01-15T14:34:08.056Z,130.25
2024-01-15T14:35:08.016Z,138.65
2024-01-15T14:36:07.974Z,157.66
2024-01-15T14:37:08.002Z,151.21
2024-01-15T14:38:07.997Z,116.62
2024-01-15T14:39:07.995Z,74.99
2024-01-15T14:40:08.055Z,62.94
2024-01-15T14:41:07.979Z,65.01
2024-01-15T14:42:07.993Z,57.80
2024-01-15T14:43:08.012Z,51.86
2024-01-15T14:44:07.985Z,52.32
2024-01-15T14:45:08.001Z,55.15
2024-01-15T14:46:08.078Z,58.69
2024-01-15T14:47:08.126Z,52.83
2024-01-15T14:48:08.225Z,50.86
2024-01-15T14:49:08.226Z,50.98
2024-01-15T14:50:08.257Z,52.26
2024-01-15T14:51:08.279Z,55.48
2024-01-15T14:52:08.386Z,58.11
2024-01-15T14:53:08.386Z,55.87
2024-01-15T14:54:08.373Z,50.77
2024-01-15T14:55:08.489Z,69.01
2024-01-15T14:56:08.442Z,72.67
2024-01-15T14:57:08.495Z,73.00
2024-01-15T14:58:08.515Z,86.70
2024-01-15T14:59:08.791Z,87.32
2024-01-15T15:00:08.646Z,85.12
2024-01-15T15:01:08.674Z,83.61
2024-01-15T15:02:09.553Z,86.09
2024-01-15T15:03:08.729Z,87.24
2024-01-15T15:04:08.817Z,88.77
2024-01-15T15:05:08.979Z,86.33
2024-01-15T15:06:09.148Z,85.72
2024-01-15T15:07:08.947Z,81.62
2024-01-15T15:08:08.975Z,84.27
2024-01-15T15:09:09.009Z,86.40
2024-01-15T15:10:09.071Z,87.31
2024-01-15T15:11:09.096Z,88.09
2024-01-15T15:12:09.132Z,79.06
2024-01-15T15:13:09.223Z,83.58
2024-01-15T15:14:09.276Z,107.58
2024-01-15T15:15:11.914Z,103.11
2024-01-15T15:16:09.351Z,103.75
2024-01-15T15:17:09.335Z,108.05
2024-01-15T15:18:09.354Z,116.39
2024-01-15T15:19:09.384Z,134.32
2024-01-15T15:20:09.456Z,172.66
2024-01-15T15:21:09.340Z,180.04
2024-01-15T15:22:09.359Z,187.41
2024-01-15T15:23:09.318Z,205.63
2024-01-15T15:24:09.305Z,212.62
2024-01-15T15:25:09.348Z,217.68
2024-01-15T15:26:09.310Z,193.81
2024-01-15T15:27:09.351Z,183.46
2024-01-15T15:28:09.333Z,177.40
2024-01-15T15:29:09.352Z,157.85
2024-01-15T15:30:11.044Z,145.20
2024-01-15T15:31:09.508Z,138.46
2024-01-15T15:32:09.315Z,127.29
2024-01-15T15:33:09.397Z,120.88
2024-01-15T15:34:09.597Z,116.55
2024-01-15T15:35:09.442Z,115.61
2024-01-15T15:36:09.383Z,118.58
2024-01-15T15:37:09.349Z,130.52
2024-01-15T15:38:09.325Z,162.09
2024-01-15T15:39:09.354Z,159.13
2024-01-15T15:40:09.336Z,159.02